RYR6RR EGSS-LEAM
Flight info
| Callsign | RYR6RR |
|---|---|
| Flight time | 2h 26m |
| Altitude | 38000 |
| Route | NUGBO M183 SILVA Q41 SAM N63 LELNA DCT NOVAN DCT NENEM P152 PPN N10 CJN L27 BLN N865 ESILA |
| Aircraft | B738/M-SDE3FGILRWY/SB1 |
Departure
| Time | 2026-04-14 10:22 |
|---|---|
| Airport | London Stansted Airport (EGSS) |
Arrival
| Time | 2026-04-14 12:48 |
|---|---|
| Airport | Almería Airport (LEAM) |
| Time | Latitude | Longitude | Altitude | Speed | Heading |
|---|---|---|---|---|---|
| 2026-04-14 09:56 | 51.89291 | 0.25873 | 361 ft | 0 kts | 43° |
| 2026-04-14 10:13 | 51.89285 | 0.25864 | 351 ft | 4 kts | 43° |
| 2026-04-14 10:13 | 51.89265 | 0.25834 | 361 ft | 4 kts | 43° |
| 2026-04-14 10:14 | 51.89245 | 0.25805 | 358 ft | 4 kts | 43° |
| 2026-04-14 10:14 | 51.89220 | 0.25783 | 356 ft | 4 kts | 330° |
| 2026-04-14 10:14 | 51.89205 | 0.25804 | 361 ft | 4 kts | 313° |
| 2026-04-14 10:14 | 51.89199 | 0.25816 | 361 ft | 1 kts | 313° |
| 2026-04-14 10:17 | 51.89204 | 0.25806 | 351 ft | 3 kts | 313° |
| 2026-04-14 10:18 | 51.89274 | 0.25683 | 351 ft | 11 kts | 313° |
| 2026-04-14 10:18 | 51.89335 | 0.25584 | 351 ft | 14 kts | 323° |
| 2026-04-14 10:18 | 51.89412 | 0.25489 | 354 ft | 14 kts | 304° |
| 2026-04-14 10:19 | 51.89419 | 0.25350 | 353 ft | 12 kts | 297° |
| 2026-04-14 10:19 | 51.89461 | 0.25269 | 355 ft | 7 kts | 312° |
| 2026-04-14 10:19 | 51.89486 | 0.25216 | 356 ft | 3 kts | 296° |
| 2026-04-14 10:19 | 51.89488 | 0.25207 | 360 ft | 0 kts | 290° |
| 2026-04-14 10:20 | 51.89490 | 0.25199 | 361 ft | 3 kts | 285° |
| 2026-04-14 10:20 | 51.89494 | 0.25126 | 359 ft | 9 kts | 268° |
| 2026-04-14 10:20 | 51.89492 | 0.24998 | 360 ft | 13 kts | 264° |
| 2026-04-14 10:21 | 51.89430 | 0.24875 | 350 ft | 16 kts | 223° |
| 2026-04-14 10:21 | 51.89284 | 0.24656 | 352 ft | 57 kts | 223° |
| 2026-04-14 10:21 | 51.88823 | 0.23966 | 337 ft | 122 kts | 223° |
| 2026-04-14 10:21 | 51.88094 | 0.22830 | 492 ft | 158 kts | 224° |
| 2026-04-14 10:22 | 51.87304 | 0.21570 | 1227 ft | 161 kts | 219° |
| 2026-04-14 10:22 | 51.86495 | 0.20380 | 2141 ft | 153 kts | 218° |
| 2026-04-14 10:22 | 51.85674 | 0.19186 | 2623 ft | 174 kts | 218° |
| 2026-04-14 10:22 | 51.84712 | 0.17770 | 2855 ft | 199 kts | 220° |
| 2026-04-14 10:23 | 51.83650 | 0.16154 | 3102 ft | 221 kts | 226° |
| 2026-04-14 10:23 | 51.83046 | 0.13749 | 3375 ft | 251 kts | 266° |
| 2026-04-14 10:23 | 51.83601 | 0.11054 | 4079 ft | 259 kts | 305° |
| 2026-04-14 10:23 | 51.85089 | 0.09341 | 4835 ft | 274 kts | 339° |
| 2026-04-14 10:24 | 51.86975 | 0.08748 | 5641 ft | 279 kts | 353° |
| 2026-04-14 10:24 | 51.88925 | 0.08531 | 6455 ft | 282 kts | 353° |
| 2026-04-14 10:24 | 51.90873 | 0.08208 | 7278 ft | 281 kts | 351° |
| 2026-04-14 10:24 | 51.92815 | 0.07804 | 8084 ft | 282 kts | 349° |
| 2026-04-14 10:25 | 51.94759 | 0.07330 | 8890 ft | 283 kts | 347° |
| 2026-04-14 10:25 | 51.96659 | 0.06735 | 9682 ft | 282 kts | 336° |
| 2026-04-14 10:25 | 51.98202 | 0.04924 | 10406 ft | 275 kts | 303° |
| 2026-04-14 10:25 | 51.98914 | 0.01994 | 10645 ft | 293 kts | 274° |
| 2026-04-14 10:26 | 51.98564 | -0.01342 | 10865 ft | 312 kts | 251° |
| 2026-04-14 10:26 | 51.97844 | -0.04723 | 11379 ft | 320 kts | 254° |
| 2026-04-14 10:26 | 51.97247 | -0.08195 | 12180 ft | 320 kts | 256° |
| 2026-04-14 10:26 | 51.96721 | -0.11742 | 12828 ft | 326 kts | 258° |
| 2026-04-14 10:27 | 51.96225 | -0.15350 | 13555 ft | 330 kts | 258° |
| 2026-04-14 10:27 | 51.95746 | -0.18952 | 14273 ft | 333 kts | 258° |
| 2026-04-14 10:27 | 51.95262 | -0.22632 | 14976 ft | 335 kts | 259° |
| 2026-04-14 10:27 | 51.94775 | -0.26344 | 15665 ft | 339 kts | 259° |
| 2026-04-14 10:28 | 51.94281 | -0.30108 | 16361 ft | 343 kts | 259° |
| 2026-04-14 10:28 | 51.93782 | -0.33904 | 17063 ft | 346 kts | 259° |
| 2026-04-14 10:28 | 51.93277 | -0.37734 | 17754 ft | 349 kts | 259° |
| 2026-04-14 10:28 | 51.92765 | -0.41606 | 18419 ft | 353 kts | 259° |
| 2026-04-14 10:29 | 51.92246 | -0.45515 | 19020 ft | 356 kts | 260° |
| 2026-04-14 10:29 | 51.91724 | -0.49436 | 19668 ft | 357 kts | 260° |
| 2026-04-14 10:29 | 51.91205 | -0.53323 | 20303 ft | 358 kts | 261° |
| 2026-04-14 10:29 | 51.90676 | -0.57282 | 20917 ft | 361 kts | 261° |
| 2026-04-14 10:30 | 51.90143 | -0.61256 | 21502 ft | 363 kts | 261° |
| 2026-04-14 10:30 | 51.89603 | -0.65270 | 22105 ft | 365 kts | 261° |
| 2026-04-14 10:30 | 51.89060 | -0.69296 | 22701 ft | 367 kts | 262° |
| 2026-04-14 10:30 | 51.88512 | -0.73347 | 23266 ft | 370 kts | 262° |
| 2026-04-14 10:31 | 51.87959 | -0.77426 | 23805 ft | 372 kts | 262° |
| 2026-04-14 10:31 | 51.87403 | -0.81519 | 24284 ft | 373 kts | 262° |
| 2026-04-14 10:31 | 51.86843 | -0.85624 | 24775 ft | 374 kts | 262° |
| 2026-04-14 10:31 | 51.86279 | -0.89746 | 25255 ft | 376 kts | 262° |
| 2026-04-14 10:32 | 51.85522 | -0.93812 | 25675 ft | 386 kts | 249° |
| 2026-04-14 10:32 | 51.83983 | -0.97394 | 26094 ft | 401 kts | 233° |
| 2026-04-14 10:32 | 51.81781 | -1.00264 | 26601 ft | 414 kts | 218° |
| 2026-04-14 10:32 | 51.79086 | -1.02119 | 26972 ft | 433 kts | 200° |
| 2026-04-14 10:33 | 51.76084 | -1.03005 | 27274 ft | 443 kts | 195° |
| 2026-04-14 10:33 | 51.73012 | -1.03710 | 27592 ft | 448 kts | 194° |
| 2026-04-14 10:33 | 51.69916 | -1.04400 | 27963 ft | 450 kts | 195° |
| 2026-04-14 10:33 | 51.66814 | -1.05146 | 28350 ft | 452 kts | 196° |
| 2026-04-14 10:34 | 51.60635 | -1.06803 | 29068 ft | 454 kts | 200° |
| 2026-04-14 10:34 | 51.57575 | -1.08021 | 29415 ft | 453 kts | 203° |
| 2026-04-14 10:34 | 51.54541 | -1.09415 | 29702 ft | 456 kts | 204° |
| 2026-04-14 10:35 | 51.51477 | -1.10811 | 29954 ft | 461 kts | 203° |
| 2026-04-14 10:35 | 51.48370 | -1.12165 | 30273 ft | 463 kts | 202° |
| 2026-04-14 10:35 | 51.45248 | -1.13495 | 30545 ft | 466 kts | 202° |
| 2026-04-14 10:35 | 51.42109 | -1.14842 | 30750 ft | 469 kts | 202° |
| 2026-04-14 10:36 | 51.38941 | -1.16207 | 30950 ft | 473 kts | 202° |
| 2026-04-14 10:36 | 51.35755 | -1.17579 | 31170 ft | 476 kts | 202° |
| 2026-04-14 10:36 | 51.32554 | -1.18947 | 31433 ft | 477 kts | 202° |
| 2026-04-14 10:36 | 51.29380 | -1.20296 | 31682 ft | 480 kts | 202° |
| 2026-04-14 10:37 | 51.26148 | -1.21667 | 31909 ft | 482 kts | 202° |
| 2026-04-14 10:37 | 51.22904 | -1.23042 | 32216 ft | 482 kts | 202° |
| 2026-04-14 10:37 | 51.19661 | -1.24415 | 32536 ft | 482 kts | 202° |
| 2026-04-14 10:37 | 51.16412 | -1.25784 | 32791 ft | 484 kts | 202° |
| 2026-04-14 10:38 | 51.13148 | -1.27150 | 33039 ft | 486 kts | 202° |
| 2026-04-14 10:38 | 51.09876 | -1.28516 | 33332 ft | 487 kts | 202° |
| 2026-04-14 10:38 | 51.06598 | -1.29882 | 33625 ft | 487 kts | 202° |
| 2026-04-14 10:38 | 51.03316 | -1.31249 | 33901 ft | 488 kts | 203° |
| 2026-04-14 10:39 | 51.00073 | -1.32600 | 34148 ft | 489 kts | 203° |
| 2026-04-14 10:39 | 50.96783 | -1.33983 | 34397 ft | 488 kts | 204° |
| 2026-04-14 10:39 | 50.93635 | -1.35787 | 34734 ft | 473 kts | 214° |
| 2026-04-14 10:39 | 50.90725 | -1.38120 | 35161 ft | 465 kts | 216° |
| 2026-04-14 10:40 | 50.87868 | -1.40487 | 35528 ft | 462 kts | 216° |
| 2026-04-14 10:40 | 50.85020 | -1.42836 | 35806 ft | 461 kts | 216° |
| 2026-04-14 10:40 | 50.82168 | -1.45153 | 36104 ft | 461 kts | 216° |
| 2026-04-14 10:40 | 50.79311 | -1.47443 | 36407 ft | 460 kts | 215° |
| 2026-04-14 10:41 | 50.76458 | -1.49713 | 36704 ft | 458 kts | 215° |
| 2026-04-14 10:41 | 50.73652 | -1.51938 | 36973 ft | 456 kts | 215° |
| 2026-04-14 10:41 | 50.70821 | -1.54180 | 37235 ft | 455 kts | 215° |
| 2026-04-14 10:41 | 50.67988 | -1.56418 | 37469 ft | 454 kts | 215° |
| 2026-04-14 10:42 | 50.65167 | -1.58645 | 37740 ft | 453 kts | 215° |
| 2026-04-14 10:42 | 50.62350 | -1.60865 | 37968 ft | 452 kts | 215° |
| 2026-04-14 10:42 | 50.59530 | -1.63088 | 38062 ft | 455 kts | 215° |
| 2026-04-14 10:43 | 50.53839 | -1.67572 | 38084 ft | 459 kts | 215° |
| 2026-04-14 10:43 | 50.48171 | -1.72014 | 38075 ft | 457 kts | 215° |
| 2026-04-14 10:44 | 50.42489 | -1.76454 | 38082 ft | 455 kts | 215° |
| 2026-04-14 10:44 | 50.36823 | -1.80872 | 38074 ft | 454 kts | 215° |
| 2026-04-14 10:45 | 50.31171 | -1.85272 | 38064 ft | 453 kts | 215° |
| 2026-04-14 10:45 | 50.25557 | -1.89629 | 38082 ft | 454 kts | 215° |
| 2026-04-14 10:46 | 50.19891 | -1.94017 | 38077 ft | 455 kts | 215° |
| 2026-04-14 10:46 | 50.14206 | -1.98406 | 38068 ft | 457 kts | 215° |
| 2026-04-14 10:47 | 50.08502 | -2.02797 | 38077 ft | 458 kts | 215° |
| 2026-04-14 10:47 | 50.02812 | -2.07167 | 38079 ft | 460 kts | 215° |
| 2026-04-14 10:48 | 49.96995 | -2.11425 | 38068 ft | 470 kts | 207° |
| 2026-04-14 10:48 | 49.90698 | -2.14454 | 38075 ft | 476 kts | 204° |
| 2026-04-14 10:49 | 49.84308 | -2.17289 | 38065 ft | 479 kts | 204° |
| 2026-04-14 10:49 | 49.77957 | -2.20157 | 38078 ft | 479 kts | 204° |
| 2026-04-14 10:50 | 49.71576 | -2.23095 | 38056 ft | 478 kts | 204° |
| 2026-04-14 10:50 | 49.65205 | -2.26047 | 38061 ft | 477 kts | 205° |
| 2026-04-14 10:51 | 49.58854 | -2.28982 | 38067 ft | 476 kts | 205° |
| 2026-04-14 10:51 | 49.52506 | -2.31907 | 38081 ft | 475 kts | 205° |
| 2026-04-14 10:52 | 49.46214 | -2.34797 | 38069 ft | 475 kts | 204° |
| 2026-04-14 10:52 | 49.39885 | -2.37695 | 38068 ft | 475 kts | 204° |
| 2026-04-14 10:53 | 49.33560 | -2.40584 | 38085 ft | 474 kts | 204° |
| 2026-04-14 10:53 | 49.27240 | -2.43463 | 38076 ft | 474 kts | 204° |
| 2026-04-14 10:54 | 49.20962 | -2.46315 | 38081 ft | 474 kts | 204° |
| 2026-04-14 10:54 | 49.14640 | -2.49180 | 38077 ft | 474 kts | 204° |
| 2026-04-14 10:55 | 49.08311 | -2.52040 | 38078 ft | 475 kts | 204° |
| 2026-04-14 10:55 | 49.01972 | -2.54897 | 38073 ft | 475 kts | 204° |
| 2026-04-14 10:56 | 48.95672 | -2.57728 | 38076 ft | 476 kts | 204° |
| 2026-04-14 10:56 | 48.89316 | -2.60578 | 38076 ft | 477 kts | 204° |
| 2026-04-14 10:57 | 48.82944 | -2.63426 | 38062 ft | 477 kts | 204° |
| 2026-04-14 10:57 | 48.76585 | -2.66260 | 38062 ft | 476 kts | 204° |
| 2026-04-14 10:58 | 48.70283 | -2.69061 | 38060 ft | 474 kts | 204° |
| 2026-04-14 10:58 | 48.63967 | -2.71862 | 38066 ft | 472 kts | 204° |
| 2026-04-14 10:59 | 48.57672 | -2.74646 | 38070 ft | 470 kts | 204° |
| 2026-04-14 10:59 | 48.51401 | -2.77414 | 38063 ft | 469 kts | 204° |
| 2026-04-14 11:00 | 48.45191 | -2.80148 | 38062 ft | 468 kts | 204° |
| 2026-04-14 11:00 | 48.38948 | -2.82889 | 38055 ft | 467 kts | 204° |
| 2026-04-14 11:01 | 48.32712 | -2.85621 | 38081 ft | 467 kts | 204° |
| 2026-04-14 11:01 | 48.26461 | -2.88353 | 38081 ft | 468 kts | 204° |
| 2026-04-14 11:02 | 48.20238 | -2.91065 | 38068 ft | 470 kts | 204° |
| 2026-04-14 11:02 | 48.13949 | -2.93799 | 38069 ft | 471 kts | 204° |
| 2026-04-14 11:03 | 48.07634 | -2.96536 | 38071 ft | 473 kts | 204° |
| 2026-04-14 11:03 | 48.01304 | -2.99272 | 38085 ft | 474 kts | 204° |
| 2026-04-14 11:04 | 47.94955 | -3.02010 | 38064 ft | 476 kts | 204° |
| 2026-04-14 11:04 | 47.88636 | -3.04728 | 38074 ft | 476 kts | 204° |
| 2026-04-14 11:05 | 47.82270 | -3.07458 | 38085 ft | 476 kts | 204° |
| 2026-04-14 11:05 | 47.75903 | -3.10182 | 38068 ft | 476 kts | 204° |
| 2026-04-14 11:06 | 47.69540 | -3.12897 | 38076 ft | 476 kts | 204° |
| 2026-04-14 11:06 | 47.63224 | -3.15587 | 38079 ft | 475 kts | 204° |
| 2026-04-14 11:07 | 47.56865 | -3.18287 | 38093 ft | 475 kts | 204° |
| 2026-04-14 11:07 | 47.50506 | -3.20981 | 38086 ft | 475 kts | 204° |
| 2026-04-14 11:08 | 47.44151 | -3.23666 | 38098 ft | 475 kts | 204° |
| 2026-04-14 11:08 | 47.37822 | -3.26336 | 38088 ft | 477 kts | 204° |
| 2026-04-14 11:09 | 47.31438 | -3.29020 | 38079 ft | 477 kts | 203° |
| 2026-04-14 11:09 | 47.25061 | -3.31693 | 38079 ft | 477 kts | 204° |
| 2026-04-14 11:10 | 47.15498 | -3.35690 | 38098 ft | 476 kts | 204° |
| 2026-04-14 11:10 | 47.09172 | -3.38327 | 38091 ft | 475 kts | 204° |
| 2026-04-14 11:11 | 47.02808 | -3.40973 | 38103 ft | 475 kts | 203° |
| 2026-04-14 11:11 | 46.96451 | -3.43609 | 38103 ft | 475 kts | 203° |
| 2026-04-14 11:12 | 46.90096 | -3.46239 | 38080 ft | 475 kts | 203° |
| 2026-04-14 11:12 | 46.83780 | -3.48845 | 38101 ft | 475 kts | 203° |
| 2026-04-14 11:13 | 46.77426 | -3.51461 | 38105 ft | 475 kts | 203° |
| 2026-04-14 11:13 | 46.71061 | -3.54076 | 38104 ft | 476 kts | 203° |
| 2026-04-14 11:14 | 46.64686 | -3.56688 | 38103 ft | 476 kts | 203° |
| 2026-04-14 11:14 | 46.58348 | -3.59278 | 38106 ft | 477 kts | 203° |
| 2026-04-14 11:15 | 46.51956 | -3.61884 | 38104 ft | 477 kts | 203° |
| 2026-04-14 11:15 | 46.45559 | -3.64486 | 38109 ft | 477 kts | 203° |
| 2026-04-14 11:16 | 46.39163 | -3.67082 | 38111 ft | 477 kts | 203° |
| 2026-04-14 11:16 | 46.32696 | -3.69151 | 38104 ft | 487 kts | 190° |
| 2026-04-14 11:17 | 46.25868 | -3.68558 | 38128 ft | 497 kts | 174° |
| 2026-04-14 11:17 | 46.19065 | -3.66748 | 38116 ft | 497 kts | 173° |
| 2026-04-14 11:18 | 46.12266 | -3.64930 | 38114 ft | 497 kts | 174° |
| 2026-04-14 11:18 | 46.05468 | -3.63193 | 38118 ft | 496 kts | 174° |
| 2026-04-14 11:19 | 45.98715 | -3.61511 | 38125 ft | 495 kts | 174° |
| 2026-04-14 11:19 | 45.91923 | -3.59831 | 38132 ft | 495 kts | 174° |
| 2026-04-14 11:20 | 45.85131 | -3.58151 | 38134 ft | 495 kts | 174° |
| 2026-04-14 11:20 | 45.78341 | -3.56474 | 38136 ft | 495 kts | 174° |
| 2026-04-14 11:21 | 45.71593 | -3.54810 | 38130 ft | 496 kts | 174° |
| 2026-04-14 11:21 | 45.64786 | -3.53136 | 38129 ft | 497 kts | 174° |
| 2026-04-14 11:22 | 45.57966 | -3.51463 | 38144 ft | 498 kts | 174° |
| 2026-04-14 11:22 | 45.51134 | -3.49791 | 38144 ft | 499 kts | 173° |
| 2026-04-14 11:23 | 45.44337 | -3.48131 | 38141 ft | 499 kts | 173° |
| 2026-04-14 11:23 | 45.37486 | -3.46462 | 38149 ft | 500 kts | 173° |
| 2026-04-14 11:24 | 45.30628 | -3.44797 | 38149 ft | 500 kts | 173° |
| 2026-04-14 11:24 | 45.23763 | -3.43133 | 38165 ft | 501 kts | 173° |
| 2026-04-14 11:25 | 45.16935 | -3.41482 | 38162 ft | 502 kts | 173° |
| 2026-04-14 11:25 | 45.10051 | -3.39822 | 38150 ft | 502 kts | 173° |
| 2026-04-14 11:26 | 45.03157 | -3.38163 | 38172 ft | 502 kts | 173° |
| 2026-04-14 11:26 | 44.96263 | -3.36509 | 38167 ft | 503 kts | 173° |
| 2026-04-14 11:27 | 44.89409 | -3.34868 | 38166 ft | 503 kts | 173° |
| 2026-04-14 11:27 | 44.82517 | -3.33222 | 38172 ft | 503 kts | 173° |
| 2026-04-14 11:28 | 44.75624 | -3.31580 | 38177 ft | 502 kts | 173° |
| 2026-04-14 11:28 | 44.68734 | -3.29942 | 38186 ft | 502 kts | 173° |
| 2026-04-14 11:29 | 44.61886 | -3.28319 | 38177 ft | 502 kts | 173° |
| 2026-04-14 11:29 | 44.55001 | -3.26690 | 38177 ft | 502 kts | 172° |
| 2026-04-14 11:30 | 44.48120 | -3.25066 | 38185 ft | 501 kts | 172° |
| 2026-04-14 11:30 | 44.41247 | -3.23448 | 38196 ft | 501 kts | 172° |
| 2026-04-14 11:31 | 44.34420 | -3.21845 | 38188 ft | 501 kts | 172° |
| 2026-04-14 11:31 | 44.27550 | -3.20235 | 38196 ft | 501 kts | 172° |
| 2026-04-14 11:32 | 44.20672 | -3.18627 | 38199 ft | 501 kts | 172° |
| 2026-04-14 11:32 | 44.13790 | -3.17022 | 38193 ft | 502 kts | 172° |
| 2026-04-14 11:33 | 44.07014 | -3.14945 | 38196 ft | 503 kts | 159° |
| 2026-04-14 11:34 | 43.98141 | -3.07426 | 38213 ft | 498 kts | 137° |
| 2026-04-14 11:34 | 43.92812 | -3.01257 | 38209 ft | 500 kts | 136° |
| 2026-04-14 11:35 | 43.87430 | -2.95136 | 38203 ft | 501 kts | 137° |
| 2026-04-14 11:35 | 43.82041 | -2.89108 | 38205 ft | 502 kts | 137° |
| 2026-04-14 11:36 | 43.76605 | -2.83050 | 38198 ft | 502 kts | 137° |
| 2026-04-14 11:36 | 43.71179 | -2.76971 | 38205 ft | 502 kts | 136° |
| 2026-04-14 11:37 | 43.65803 | -2.70825 | 38201 ft | 502 kts | 137° |
| 2026-04-14 11:37 | 43.60404 | -2.64822 | 38228 ft | 503 kts | 137° |
| 2026-04-14 11:38 | 43.54931 | -2.58814 | 38210 ft | 503 kts | 137° |
| 2026-04-14 11:38 | 43.49463 | -2.52807 | 38206 ft | 502 kts | 137° |
| 2026-04-14 11:39 | 43.44000 | -2.46801 | 38213 ft | 502 kts | 137° |
| 2026-04-14 11:39 | 43.38541 | -2.40809 | 38211 ft | 502 kts | 137° |
| 2026-04-14 11:40 | 43.33115 | -2.34869 | 38208 ft | 502 kts | 137° |
| 2026-04-14 11:40 | 43.27652 | -2.28903 | 38246 ft | 502 kts | 137° |
| 2026-04-14 11:41 | 43.22181 | -2.22942 | 38208 ft | 502 kts | 137° |
| 2026-04-14 11:41 | 43.16715 | -2.17001 | 38196 ft | 501 kts | 137° |
| 2026-04-14 11:42 | 43.11306 | -2.11133 | 38208 ft | 499 kts | 136° |
| 2026-04-14 11:42 | 43.05866 | -2.05242 | 38201 ft | 499 kts | 136° |
| 2026-04-14 11:43 | 43.00423 | -1.99346 | 38211 ft | 500 kts | 136° |
| 2026-04-14 11:43 | 42.94961 | -1.93442 | 38209 ft | 501 kts | 136° |
| 2026-04-14 11:44 | 42.89522 | -1.87579 | 38216 ft | 503 kts | 136° |
| 2026-04-14 11:44 | 42.84033 | -1.81651 | 38217 ft | 503 kts | 136° |
| 2026-04-14 11:45 | 42.78489 | -1.75805 | 38190 ft | 508 kts | 145° |
| 2026-04-14 11:45 | 42.75224 | -1.73909 | 38226 ft | 514 kts | 166° |
| 2026-04-14 11:45 | 42.71684 | -1.73326 | 38211 ft | 513 kts | 183° |
| 2026-04-14 11:45 | 42.68167 | -1.73900 | 38207 ft | 507 kts | 200° |
| 2026-04-14 11:46 | 42.64969 | -1.75585 | 38226 ft | 496 kts | 212° |
| 2026-04-14 11:46 | 42.58838 | -1.79862 | 38199 ft | 495 kts | 213° |
| 2026-04-14 11:47 | 42.52685 | -1.84112 | 38188 ft | 497 kts | 212° |
| 2026-04-14 11:47 | 42.46470 | -1.88261 | 38188 ft | 498 kts | 212° |
| 2026-04-14 11:48 | 42.40238 | -1.92405 | 38169 ft | 499 kts | 212° |
| 2026-04-14 11:48 | 42.34051 | -1.96530 | 38181 ft | 499 kts | 212° |
| 2026-04-14 11:49 | 42.27822 | -2.00684 | 38192 ft | 500 kts | 212° |
| 2026-04-14 11:49 | 42.21576 | -2.04833 | 38189 ft | 501 kts | 212° |
| 2026-04-14 11:50 | 42.15324 | -2.08974 | 38191 ft | 501 kts | 212° |
| 2026-04-14 11:50 | 42.09101 | -2.13083 | 38179 ft | 502 kts | 212° |
| 2026-04-14 11:51 | 41.99698 | -2.19276 | 38180 ft | 501 kts | 212° |
| 2026-04-14 11:51 | 41.93441 | -2.23387 | 38188 ft | 500 kts | 212° |
| 2026-04-14 11:52 | 41.87192 | -2.27485 | 38183 ft | 500 kts | 212° |
| 2026-04-14 11:52 | 41.80977 | -2.31552 | 38188 ft | 500 kts | 212° |
| 2026-04-14 11:53 | 41.74727 | -2.35632 | 38157 ft | 500 kts | 212° |
| 2026-04-14 11:53 | 41.68481 | -2.39701 | 38178 ft | 499 kts | 212° |
| 2026-04-14 11:54 | 41.62236 | -2.43762 | 38173 ft | 499 kts | 212° |
| 2026-04-14 11:54 | 41.55993 | -2.47812 | 38178 ft | 499 kts | 212° |
| 2026-04-14 11:55 | 41.49793 | -2.51826 | 38182 ft | 499 kts | 212° |
| 2026-04-14 11:55 | 41.43543 | -2.55849 | 38183 ft | 499 kts | 212° |
| 2026-04-14 11:56 | 41.37286 | -2.59858 | 38194 ft | 500 kts | 210° |
| 2026-04-14 11:56 | 41.34005 | -2.61477 | 38188 ft | 507 kts | 199° |
| 2026-04-14 11:56 | 41.30541 | -2.62416 | 38191 ft | 511 kts | 189° |
| 2026-04-14 11:57 | 41.27030 | -2.62705 | 38187 ft | 513 kts | 178° |
| 2026-04-14 11:57 | 41.23466 | -2.62406 | 38213 ft | 513 kts | 175° |
| 2026-04-14 11:57 | 41.16342 | -2.61602 | 38200 ft | 514 kts | 175° |
| 2026-04-14 11:58 | 41.09203 | -2.60891 | 38195 ft | 514 kts | 176° |
| 2026-04-14 11:58 | 41.02108 | -2.60265 | 38204 ft | 514 kts | 176° |
| 2026-04-14 11:59 | 40.94962 | -2.59630 | 38196 ft | 515 kts | 176° |
| 2026-04-14 11:59 | 40.87808 | -2.58990 | 38195 ft | 516 kts | 176° |
| 2026-04-14 12:00 | 40.80642 | -2.58350 | 38196 ft | 516 kts | 176° |
| 2026-04-14 12:00 | 40.73519 | -2.57715 | 38190 ft | 517 kts | 176° |
| 2026-04-14 12:01 | 40.66342 | -2.57077 | 38195 ft | 518 kts | 176° |
| 2026-04-14 12:01 | 40.59144 | -2.56438 | 38182 ft | 519 kts | 176° |
| 2026-04-14 12:02 | 40.51942 | -2.55801 | 38175 ft | 519 kts | 176° |
| 2026-04-14 12:02 | 40.44741 | -2.55165 | 38181 ft | 518 kts | 176° |
| 2026-04-14 12:03 | 40.37605 | -2.55148 | 38180 ft | 515 kts | 190° |
| 2026-04-14 12:03 | 40.30759 | -2.57522 | 38199 ft | 505 kts | 206° |
| 2026-04-14 12:04 | 40.24231 | -2.60912 | 38191 ft | 505 kts | 207° |
| 2026-04-14 12:04 | 40.17693 | -2.64280 | 38185 ft | 505 kts | 206° |
| 2026-04-14 12:05 | 40.11174 | -2.67561 | 38140 ft | 506 kts | 206° |
| 2026-04-14 12:05 | 40.04613 | -2.70828 | 38177 ft | 505 kts | 206° |
| 2026-04-14 12:06 | 39.98054 | -2.74089 | 38200 ft | 504 kts | 206° |
| 2026-04-14 12:06 | 39.91493 | -2.77348 | 38198 ft | 505 kts | 206° |
| 2026-04-14 12:07 | 39.84974 | -2.80581 | 38194 ft | 505 kts | 206° |
| 2026-04-14 12:07 | 39.78415 | -2.83827 | 38194 ft | 504 kts | 206° |
| 2026-04-14 12:08 | 39.71852 | -2.87069 | 38189 ft | 505 kts | 206° |
| 2026-04-14 12:08 | 39.65282 | -2.90308 | 38201 ft | 505 kts | 206° |
| 2026-04-14 12:09 | 39.58758 | -2.93518 | 38194 ft | 505 kts | 206° |
| 2026-04-14 12:09 | 39.52185 | -2.96755 | 38198 ft | 505 kts | 206° |
| 2026-04-14 12:10 | 39.45619 | -2.99989 | 38200 ft | 505 kts | 206° |
| 2026-04-14 12:10 | 39.39035 | -3.03223 | 38199 ft | 506 kts | 205° |
| 2026-04-14 12:11 | 39.32445 | -3.06428 | 38169 ft | 506 kts | 205° |
| 2026-04-14 12:11 | 39.25906 | -3.09593 | 38190 ft | 505 kts | 205° |
| 2026-04-14 12:12 | 39.19329 | -3.12775 | 38201 ft | 504 kts | 205° |
| 2026-04-14 12:12 | 39.12760 | -3.15950 | 38200 ft | 504 kts | 205° |
| 2026-04-14 12:13 | 39.06204 | -3.19112 | 38196 ft | 503 kts | 205° |
| 2026-04-14 12:13 | 38.99641 | -3.22271 | 38199 ft | 503 kts | 205° |
| 2026-04-14 12:14 | 38.93135 | -3.25405 | 38197 ft | 503 kts | 205° |
| 2026-04-14 12:14 | 38.86585 | -3.28560 | 38200 ft | 502 kts | 205° |
| 2026-04-14 12:15 | 38.80042 | -3.31706 | 38190 ft | 502 kts | 205° |
| 2026-04-14 12:15 | 38.73506 | -3.34842 | 38210 ft | 501 kts | 205° |
| 2026-04-14 12:16 | 38.67014 | -3.37950 | 38203 ft | 501 kts | 205° |
| 2026-04-14 12:16 | 38.60483 | -3.41071 | 38212 ft | 501 kts | 205° |
| 2026-04-14 12:17 | 38.53943 | -3.44190 | 38173 ft | 501 kts | 205° |
| 2026-04-14 12:17 | 38.47415 | -3.47297 | 38192 ft | 501 kts | 205° |
| 2026-04-14 12:18 | 38.40881 | -3.50406 | 37248 ft | 514 kts | 205° |
| 2026-04-14 12:18 | 38.37558 | -3.51981 | 36955 ft | 506 kts | 205° |
| 2026-04-14 12:18 | 38.34273 | -3.53534 | 36526 ft | 502 kts | 205° |
| 2026-04-14 12:19 | 38.31012 | -3.55076 | 36158 ft | 497 kts | 205° |
| 2026-04-14 12:19 | 38.27782 | -3.56604 | 35765 ft | 494 kts | 205° |
| 2026-04-14 12:19 | 38.24574 | -3.58121 | 35375 ft | 490 kts | 205° |
| 2026-04-14 12:19 | 38.21389 | -3.59626 | 34997 ft | 487 kts | 205° |
| 2026-04-14 12:20 | 38.18218 | -3.61112 | 34620 ft | 484 kts | 202° |
| 2026-04-14 12:20 | 38.15014 | -3.62211 | 34243 ft | 485 kts | 193° |
| 2026-04-14 12:20 | 38.11673 | -3.62699 | 33879 ft | 483 kts | 182° |
| 2026-04-14 12:20 | 38.08330 | -3.62726 | 33504 ft | 479 kts | 181° |
| 2026-04-14 12:21 | 38.05011 | -3.62697 | 33112 ft | 475 kts | 181° |
| 2026-04-14 12:21 | 38.01714 | -3.62666 | 32738 ft | 472 kts | 181° |
| 2026-04-14 12:21 | 37.98444 | -3.62653 | 32376 ft | 468 kts | 181° |
| 2026-04-14 12:21 | 37.95203 | -3.62659 | 32014 ft | 465 kts | 181° |
| 2026-04-14 12:22 | 37.91978 | -3.62678 | 31654 ft | 461 kts | 181° |
| 2026-04-14 12:22 | 37.88778 | -3.62704 | 31300 ft | 458 kts | 181° |
| 2026-04-14 12:22 | 37.85639 | -3.62732 | 30952 ft | 456 kts | 181° |
| 2026-04-14 12:22 | 37.82478 | -3.62760 | 30600 ft | 453 kts | 181° |
| 2026-04-14 12:23 | 37.79336 | -3.62786 | 30251 ft | 450 kts | 181° |
| 2026-04-14 12:23 | 37.76212 | -3.62812 | 29850 ft | 448 kts | 181° |
| 2026-04-14 12:23 | 37.73109 | -3.62837 | 29455 ft | 444 kts | 181° |
| 2026-04-14 12:23 | 37.70036 | -3.62861 | 29104 ft | 440 kts | 181° |
| 2026-04-14 12:24 | 37.66986 | -3.62885 | 28741 ft | 436 kts | 181° |
| 2026-04-14 12:24 | 37.64006 | -3.62909 | 28379 ft | 433 kts | 181° |
| 2026-04-14 12:24 | 37.61003 | -3.62932 | 28031 ft | 429 kts | 181° |
| 2026-04-14 12:24 | 37.58027 | -3.62955 | 27678 ft | 427 kts | 181° |
| 2026-04-14 12:25 | 37.55067 | -3.62978 | 27310 ft | 424 kts | 181° |
| 2026-04-14 12:25 | 37.52127 | -3.63000 | 26968 ft | 421 kts | 181° |
| 2026-04-14 12:25 | 37.49205 | -3.63023 | 26615 ft | 419 kts | 181° |
| 2026-04-14 12:25 | 37.46302 | -3.63045 | 26260 ft | 416 kts | 181° |
| 2026-04-14 12:26 | 37.43418 | -3.62969 | 25902 ft | 414 kts | 172° |
| 2026-04-14 12:26 | 37.40702 | -3.61863 | 25516 ft | 410 kts | 146° |
| 2026-04-14 12:26 | 37.38607 | -3.59623 | 25310 ft | 399 kts | 126° |
| 2026-04-14 12:26 | 37.36842 | -3.56838 | 25130 ft | 416 kts | 120° |
| 2026-04-14 12:27 | 37.35331 | -3.53668 | 24911 ft | 430 kts | 111° |
| 2026-04-14 12:27 | 37.34003 | -3.50282 | 24700 ft | 432 kts | 110° |
| 2026-04-14 12:27 | 37.32689 | -3.46888 | 24460 ft | 431 kts | 110° |
| 2026-04-14 12:27 | 37.31378 | -3.43530 | 24193 ft | 426 kts | 111° |
| 2026-04-14 12:28 | 37.30067 | -3.40213 | 24011 ft | 422 kts | 110° |
| 2026-04-14 12:28 | 37.28758 | -3.36929 | 23780 ft | 419 kts | 111° |
| 2026-04-14 12:28 | 37.27451 | -3.33664 | 23501 ft | 417 kts | 110° |
| 2026-04-14 12:28 | 37.26172 | -3.30477 | 23142 ft | 412 kts | 111° |
| 2026-04-14 12:29 | 37.24885 | -3.27274 | 22693 ft | 409 kts | 110° |
| 2026-04-14 12:29 | 37.23623 | -3.24099 | 22289 ft | 405 kts | 110° |
| 2026-04-14 12:29 | 37.22378 | -3.20944 | 21842 ft | 402 kts | 110° |
| 2026-04-14 12:29 | 37.21145 | -3.17810 | 21408 ft | 400 kts | 110° |
| 2026-04-14 12:30 | 37.19915 | -3.14689 | 20978 ft | 398 kts | 110° |
| 2026-04-14 12:30 | 37.18691 | -3.11588 | 20539 ft | 396 kts | 110° |
| 2026-04-14 12:30 | 37.17489 | -3.08548 | 20119 ft | 394 kts | 110° |
| 2026-04-14 12:30 | 37.16273 | -3.05475 | 19700 ft | 393 kts | 110° |
| 2026-04-14 12:31 | 37.15058 | -3.02410 | 19263 ft | 393 kts | 109° |
| 2026-04-14 12:31 | 37.13843 | -2.99347 | 18834 ft | 392 kts | 110° |
| 2026-04-14 12:31 | 37.12631 | -2.96296 | 18376 ft | 392 kts | 110° |
| 2026-04-14 12:31 | 37.11419 | -2.93248 | 17898 ft | 390 kts | 110° |
| 2026-04-14 12:32 | 37.10209 | -2.90209 | 17466 ft | 388 kts | 110° |
| 2026-04-14 12:32 | 37.09005 | -2.87186 | 17032 ft | 387 kts | 110° |
| 2026-04-14 12:32 | 37.07803 | -2.84171 | 16592 ft | 387 kts | 110° |
| 2026-04-14 12:32 | 37.06604 | -2.81169 | 16136 ft | 383 kts | 110° |
| 2026-04-14 12:33 | 37.05500 | -2.78170 | 15742 ft | 374 kts | 101° |
| 2026-04-14 12:33 | 37.05143 | -2.75088 | 15349 ft | 357 kts | 82° |
| 2026-04-14 12:33 | 37.05271 | -2.72009 | 14914 ft | 353 kts | 79° |
| 2026-04-14 12:33 | 37.05450 | -2.68960 | 14484 ft | 349 kts | 78° |
| 2026-04-14 12:34 | 37.05631 | -2.65951 | 14137 ft | 344 kts | 78° |
| 2026-04-14 12:34 | 37.05802 | -2.62967 | 13682 ft | 343 kts | 79° |
| 2026-04-14 12:34 | 37.05963 | -2.60003 | 13235 ft | 340 kts | 79° |
| 2026-04-14 12:34 | 37.06116 | -2.57065 | 12820 ft | 337 kts | 79° |
| 2026-04-14 12:35 | 37.06264 | -2.54155 | 12420 ft | 334 kts | 80° |
| 2026-04-14 12:35 | 37.06405 | -2.51306 | 12024 ft | 331 kts | 81° |
| 2026-04-14 12:35 | 37.06545 | -2.48442 | 11641 ft | 328 kts | 81° |
| 2026-04-14 12:35 | 37.06683 | -2.45603 | 11335 ft | 323 kts | 81° |
| 2026-04-14 12:36 | 37.06815 | -2.42842 | 11203 ft | 313 kts | 81° |
| 2026-04-14 12:36 | 37.06942 | -2.40153 | 10953 ft | 307 kts | 81° |
| 2026-04-14 12:36 | 37.07067 | -2.37495 | 10673 ft | 304 kts | 82° |
| 2026-04-14 12:36 | 37.07189 | -2.34869 | 10398 ft | 301 kts | 82° |
| 2026-04-14 12:37 | 37.07310 | -2.32261 | 10120 ft | 298 kts | 82° |
| 2026-04-14 12:37 | 37.07424 | -2.29757 | 10110 ft | 284 kts | 82° |
| 2026-04-14 12:37 | 37.07535 | -2.27319 | 9637 ft | 284 kts | 82° |
| 2026-04-14 12:37 | 37.07648 | -2.24878 | 9307 ft | 280 kts | 82° |
| 2026-04-14 12:38 | 37.07863 | -2.20123 | 8753 ft | 268 kts | 82° |
| 2026-04-14 12:38 | 37.07881 | -2.17818 | 8471 ft | 265 kts | 96° |
| 2026-04-14 12:38 | 37.07175 | -2.15678 | 8237 ft | 271 kts | 123° |
| 2026-04-14 12:39 | 37.05790 | -2.14085 | 7986 ft | 274 kts | 149° |
| 2026-04-14 12:39 | 37.04009 | -2.13368 | 7705 ft | 275 kts | 173° |
| 2026-04-14 12:39 | 37.02065 | -2.13017 | 6944 ft | 288 kts | 167° |
| 2026-04-14 12:39 | 37.00206 | -2.12085 | 6334 ft | 290 kts | 143° |
| 2026-04-14 12:40 | 36.98837 | -2.10313 | 5961 ft | 279 kts | 126° |
| 2026-04-14 12:40 | 36.97600 | -2.08491 | 5706 ft | 270 kts | 132° |
| 2026-04-14 12:40 | 36.96259 | -2.06889 | 5452 ft | 263 kts | 138° |
| 2026-04-14 12:40 | 36.94838 | -2.05506 | 5267 ft | 254 kts | 147° |
| 2026-04-14 12:41 | 36.93193 | -2.04844 | 4983 ft | 247 kts | 180° |
| 2026-04-14 12:41 | 36.91605 | -2.05229 | 4834 ft | 229 kts | 213° |
| 2026-04-14 12:41 | 36.90628 | -2.06617 | 4647 ft | 206 kts | 256° |
| 2026-04-14 12:41 | 36.90578 | -2.08303 | 4427 ft | 190 kts | 278° |
| 2026-04-14 12:42 | 36.90604 | -2.09925 | 4187 ft | 184 kts | 266° |
| 2026-04-14 12:42 | 36.90431 | -2.11492 | 3940 ft | 181 kts | 262° |
| 2026-04-14 12:42 | 36.90221 | -2.13044 | 3639 ft | 184 kts | 258° |
| 2026-04-14 12:42 | 36.89871 | -2.14625 | 3260 ft | 189 kts | 253° |
| 2026-04-14 12:43 | 36.89507 | -2.16180 | 3016 ft | 183 kts | 253° |
| 2026-04-14 12:43 | 36.89162 | -2.17620 | 2856 ft | 167 kts | 252° |
| 2026-04-14 12:43 | 36.88845 | -2.18917 | 2804 ft | 145 kts | 251° |
| 2026-04-14 12:43 | 36.88549 | -2.20117 | 2646 ft | 145 kts | 251° |
| 2026-04-14 12:44 | 36.88257 | -2.21302 | 2416 ft | 138 kts | 251° |
| 2026-04-14 12:44 | 36.87982 | -2.22418 | 2229 ft | 132 kts | 251° |
| 2026-04-14 12:44 | 36.87710 | -2.23516 | 2041 ft | 132 kts | 251° |
| 2026-04-14 12:45 | 36.87160 | -2.25749 | 1684 ft | 133 kts | 248° |
| 2026-04-14 12:45 | 36.86889 | -2.26852 | 1514 ft | 133 kts | 248° |
| 2026-04-14 12:45 | 36.86621 | -2.27938 | 1314 ft | 132 kts | 250° |
| 2026-04-14 12:45 | 36.86346 | -2.29056 | 1180 ft | 137 kts | 250° |
| 2026-04-14 12:46 | 36.86071 | -2.30188 | 1005 ft | 136 kts | 251° |
| 2026-04-14 12:46 | 36.85781 | -2.31364 | 794 ft | 142 kts | 250° |
| 2026-04-14 12:46 | 36.85497 | -2.32516 | 642 ft | 138 kts | 250° |
| 2026-04-14 12:46 | 36.85219 | -2.33670 | 418 ft | 138 kts | 248° |
| 2026-04-14 12:47 | 36.84940 | -2.34798 | 209 ft | 133 kts | 249° |
| 2026-04-14 12:47 | 36.84673 | -2.35878 | 60 ft | 124 kts | 251° |
| 2026-04-14 12:47 | 36.84478 | -2.36658 | 53 ft | 64 kts | 252° |
| 2026-04-14 12:47 | 36.84370 | -2.37101 | 61 ft | 50 kts | 253° |
| 2026-04-14 12:48 | 36.84286 | -2.37450 | 61 ft | 35 kts | 253° |
| 2026-04-14 12:48 | 36.84223 | -2.37708 | 60 ft | 29 kts | 255° |
| 2026-04-14 12:48 | 36.84196 | -2.37941 | 56 ft | 22 kts | 271° |
| 2026-04-14 12:48 | 36.84210 | -2.38079 | 59 ft | 13 kts | 279° |
| 2026-04-14 12:49 | 36.84235 | -2.38184 | 59 ft | 13 kts | 310° |
| 2026-04-14 12:49 | 36.84290 | -2.38147 | 63 ft | 11 kts | 71° |
| 2026-04-14 12:49 | 36.84313 | -2.38056 | 62 ft | 12 kts | 72° |
| 2026-04-14 12:49 | 36.84340 | -2.37946 | 58 ft | 15 kts | 72° |
| 2026-04-14 12:50 | 36.84375 | -2.37805 | 64 ft | 17 kts | 73° |
| 2026-04-14 12:50 | 36.84440 | -2.37538 | 62 ft | 10 kts | 73° |
| 2026-04-14 12:50 | 36.84493 | -2.37499 | 63 ft | 9 kts | 355° |
| 2026-04-14 12:51 | 36.84532 | -2.37465 | 62 ft | 7 kts | 66° |
| 2026-04-14 12:51 | 36.84567 | -2.37443 | 67 ft | 7 kts | 330° |
| 2026-04-14 12:51 | 36.84606 | -2.37463 | 67 ft | 4 kts | 341° |
| 2026-04-14 12:51 | 36.84628 | -2.37449 | 62 ft | 4 kts | 84° |
| 2026-04-14 12:52 | 36.84616 | -2.37416 | 69 ft | 3 kts | 116° |
| 2026-04-14 12:52 | 36.84616 | -2.37415 | 69 ft | 0 kts | 116° |